MMZO/ZLO METAR and TAF weather

Enter ICAO airport designator
Station Type Date Time Source
MMZO METAR 2020/01/18 23:40 UTC NOAA

MMZO 182340Z 21005KT 10SM BKN210 29/24 A2986 RMK SLP101 8/004


Station Type Date Time Source
MMZO Decoded METAR 2020/01/18 23:40 UTC NOAA

Manzanillo International , Mexico (MMZO) 19-09N 104-34W
Jan 18, 2020 - 06:40 PM EST / 2020.01.18 2340 UTC
Wind: from the SSW (210 degrees) at 6 MPH (5 KT):0
Visibility: 10 mile(s):0
Sky conditions: mostly cloudy
Temperature: 84 F (29 C)
Dew Point: 75 F (24 C)
Relative Humidity: 74%
Pressure (altimeter): 29.86 in. Hg (1011 hPa)
ob: MMZO 182340Z 21005KT 10SM BKN210 29/24 A2986 RMK SLP101 8/004
cycle: 23

Station Type Date Time Source
MMZO TAF 2020/01/18 18:33 UTC NOAA

TAF MMZO 181631Z 1818/1918 23010KT P6SM SCT020 BKN080 BKN200
FM190300 23005KT P6SM SCT080 BKN200
FM191800 23010KT P6SM SCT020 BKN200

Example: see airport list